createdAt,value
2022-08-11T00:04:26.828Z,1.75
2022-08-11T00:09:39.454Z,1.75
2022-08-11T00:14:43.798Z,1.58
2022-08-11T00:20:14.299Z,2.03
2022-08-11T00:25:13.046Z,1.80
2022-08-11T00:30:16.067Z,1.50
2022-08-11T00:35:51.692Z,1.80
2022-08-11T00:40:56.952Z,1.60
2022-08-11T00:46:23.391Z,1.50
2022-08-11T00:52:04.074Z,1.73
2022-08-11T00:57:36.792Z,1.83
2022-08-11T01:03:12.942Z,1.65
2022-08-11T01:08:30.068Z,1.63
2022-08-11T01:13:56.769Z,1.48
2022-08-11T01:19:10.724Z,1.50
2022-08-11T01:24:28.100Z,1.90
2022-08-11T01:29:51.221Z,1.58
2022-08-11T01:35:40.482Z,2.10
2022-08-11T01:41:03.941Z,1.95
2022-08-11T01:46:21.187Z,2.10
2022-08-11T01:51:39.925Z,2.10
2022-08-11T01:57:09.854Z,2.15
2022-08-11T02:02:47.959Z,2.08
2022-08-11T02:08:00.228Z,2.15
2022-08-11T02:13:34.071Z,2.47
2022-08-11T02:19:00.784Z,2.22
2022-08-11T02:24:14.810Z,2.03
2022-08-11T02:29:55.773Z,2.08
2022-08-11T02:35:14.128Z,1.83
2022-08-11T02:40:25.049Z,2.13
2022-08-11T02:45:39.723Z,2.00
2022-08-11T02:50:56.620Z,2.08
2022-08-11T02:56:22.818Z,1.95
2022-08-11T03:01:39.090Z,1.88
2022-08-11T03:06:52.340Z,1.98
2022-08-11T03:12:24.967Z,2.08
2022-08-11T03:18:02.985Z,2.15
2022-08-11T03:23:19.934Z,2.60
2022-08-11T03:28:45.279Z,1.95
2022-08-11T03:34:06.737Z,2.30
2022-08-11T03:44:29.683Z,1.73
2022-08-11T03:49:39.199Z,2.25
2022-08-11T03:55:02.650Z,2.10
2022-08-11T04:00:25.966Z,2.08
2022-08-11T04:06:02.449Z,2.10
2022-08-11T04:11:28.850Z,2.25
2022-08-11T04:16:59.755Z,2.35
2022-08-11T04:22:20.627Z,2.17
2022-08-11T04:27:49.019Z,2.43
2022-08-11T04:33:10.827Z,2.40
2022-08-11T04:38:27.812Z,2.03
2022-08-11T04:44:02.143Z,2.50
2022-08-11T04:49:48.331Z,2.50
2022-08-11T05:00:49.497Z,2.30
2022-08-11T05:06:32.977Z,2.63
2022-08-11T05:12:02.286Z,2.85
2022-08-11T05:17:29.425Z,2.67
2022-08-11T05:22:51.977Z,2.88
2022-08-11T05:28:28.274Z,3.10
2022-08-11T05:33:54.447Z,2.72
2022-08-11T05:39:18.815Z,2.92
2022-08-11T05:44:39.589Z,2.58
2022-08-11T05:50:00.966Z,2.92
2022-08-11T05:55:24.759Z,2.95
2022-08-11T06:00:27.109Z,2.97
2022-08-11T06:05:38.485Z,3.30
2022-08-11T06:10:46.830Z,3.15
2022-08-11T06:15:52.858Z,3.80
2022-08-11T06:20:58.083Z,3.03
2022-08-11T06:26:01.362Z,3.20
2022-08-11T06:31:13.151Z,3.33
2022-08-11T06:36:54.312Z,3.85
2022-08-11T06:42:05.783Z,3.15
2022-08-11T06:47:18.795Z,2.90
2022-08-11T06:52:35.329Z,3.33
2022-08-11T06:57:59.209Z,3.13
2022-08-11T07:03:10.345Z,3.67
2022-08-11T07:09:02.252Z,3.40
2022-08-11T07:14:25.376Z,3.42
2022-08-11T07:19:48.373Z,3.17
2022-08-11T07:25:23.898Z,2.80
2022-08-11T07:30:26.620Z,3.45
2022-08-11T07:35:35.199Z,3.17
2022-08-11T07:40:38.243Z,3.22
2022-08-11T07:46:06.039Z,2.85
2022-08-11T07:51:26.859Z,3.30
2022-08-11T07:56:38.559Z,2.93
2022-08-11T08:02:10.203Z,3.17
2022-08-11T08:07:30.970Z,3.08
2022-08-11T08:12:55.556Z,2.80
2022-08-11T08:18:21.036Z,2.63
2022-08-11T08:23:34.814Z,2.78
2022-08-11T08:28:37.133Z,2.80
2022-08-11T08:33:41.459Z,2.95
2022-08-11T08:38:52.777Z,2.70
2022-08-11T08:44:05.902Z,2.95
2022-08-11T08:49:21.948Z,3.38
2022-08-11T08:54:33.900Z,3.03
2022-08-11T08:59:48.694Z,3.22
2022-08-11T09:04:51.799Z,3.20
2022-08-11T09:09:57.321Z,3.08
2022-08-11T09:15:05.704Z,2.92
2022-08-11T09:20:14.750Z,3.10
2022-08-11T09:25:37.648Z,3.15
2022-08-11T09:30:44.832Z,2.92
2022-08-11T09:35:49.625Z,3.03
2022-08-11T09:40:52.693Z,3.00
2022-08-11T09:45:59.754Z,2.95
2022-08-11T09:51:02.677Z,2.70
2022-08-11T09:56:26.043Z,2.95
2022-08-11T10:01:31.905Z,2.60
2022-08-11T10:06:56.343Z,2.72
2022-08-11T10:12:02.776Z,2.35
2022-08-11T10:17:08.600Z,2.97
2022-08-11T10:22:32.158Z,2.85
2022-08-11T10:28:16.697Z,2.40
2022-08-11T10:33:36.357Z,2.60
2022-08-11T10:38:39.886Z,2.60
2022-08-11T10:44:01.779Z,3.10
2022-08-11T10:49:04.925Z,2.85
2022-08-11T10:54:25.571Z,2.50
2022-08-11T10:59:29.928Z,2.53
2022-08-11T11:04:59.829Z,2.65
2022-08-11T11:10:03.869Z,2.50
2022-08-11T11:15:25.819Z,2.20
2022-08-11T11:20:36.195Z,2.50
2022-08-11T11:26:10.029Z,2.05
2022-08-11T11:31:30.852Z,2.50
2022-08-11T11:36:45.378Z,2.30
2022-08-11T11:41:49.706Z,2.20
2022-08-11T11:46:52.886Z,2.33
2022-08-11T11:51:56.897Z,2.08
2022-08-11T11:57:20.557Z,2.08
2022-08-11T12:02:22.713Z,1.95
2022-08-11T12:07:43.467Z,2.00
2022-08-11T12:18:07.032Z,2.22
2022-08-11T12:23:27.905Z,1.90
2022-08-11T12:28:30.982Z,1.70
2022-08-11T12:33:35.176Z,1.98
2022-08-11T12:38:39.671Z,1.90
2022-08-11T12:44:04.530Z,2.30
2022-08-11T12:49:33.762Z,2.00
2022-08-11T12:54:43.163Z,1.83
2022-08-11T13:00:05.449Z,1.80
2022-08-11T13:05:11.572Z,1.95
2022-08-11T13:10:37.632Z,1.92
2022-08-11T13:15:40.096Z,2.00
2022-08-11T13:20:44.250Z,1.77
2022-08-11T13:25:46.861Z,2.00
2022-08-11T13:31:09.344Z,1.73
2022-08-11T13:36:12.437Z,1.65
2022-08-11T13:41:33.604Z,1.77
2022-08-11T13:46:36.530Z,1.80
2022-08-11T13:51:39.968Z,1.80
2022-08-11T13:56:45.234Z,1.50
2022-08-11T14:02:20.399Z,1.52
2022-08-11T14:07:25.743Z,1.70
2022-08-11T14:12:49.821Z,1.83
2022-08-11T14:17:57.212Z,2.00
2022-08-11T14:22:59.881Z,2.05
2022-08-11T14:28:31.934Z,1.73
2022-08-11T14:33:24.265Z,1.73
2022-08-11T14:38:42.039Z,1.88
2022-08-11T14:44:10.367Z,1.70
2022-08-11T14:49:16.721Z,1.42
2022-08-11T14:54:37.897Z,1.63
2022-08-11T14:59:40.305Z,1.35
2022-08-11T15:04:42.717Z,1.60
2022-08-11T15:15:27.848Z,1.52
2022-08-11T15:20:53.489Z,1.40
2022-08-11T15:26:03.264Z,1.50
2022-08-11T15:31:23.973Z,1.88
2022-08-11T15:36:48.067Z,1.70
2022-08-11T15:42:30.814Z,1.55
2022-08-11T15:47:38.914Z,1.70
2022-08-11T15:53:17.979Z,1.60
2022-08-11T15:58:39.650Z,1.70
2022-08-11T16:04:12.666Z,1.50
2022-08-11T16:09:18.581Z,1.50
2022-08-11T16:14:41.704Z,2.00
2022-08-11T16:19:45.775Z,1.70
2022-08-11T16:25:58.259Z,2.30
2022-08-11T16:30:13.644Z,1.80
2022-08-11T16:35:36.769Z,1.50
2022-08-11T16:40:40.047Z,1.60
2022-08-11T16:46:01.494Z,1.63
2022-08-11T16:51:08.253Z,1.52
2022-08-11T16:56:16.760Z,1.90
2022-08-11T17:01:21.336Z,1.90
2022-08-11T17:06:42.106Z,1.80
2022-08-11T17:12:12.056Z,1.50
2022-08-11T17:17:18.116Z,1.50
2022-08-11T17:22:39.449Z,1.63
2022-08-11T17:27:42.850Z,1.98
2022-08-11T17:33:10.239Z,1.92
2022-08-11T17:38:21.406Z,1.90
2022-08-11T17:43:42.337Z,1.60
2022-08-11T17:48:48.252Z,1.73
2022-08-11T17:54:18.264Z,1.73
2022-08-11T17:59:49.171Z,2.13
2022-08-11T18:04:52.698Z,1.63
2022-08-11T18:10:13.474Z,1.80
2022-08-11T18:15:34.410Z,1.83
2022-08-11T18:20:55.396Z,2.00
2022-08-11T18:26:20.296Z,1.80
2022-08-11T18:31:43.136Z,2.20
2022-08-11T18:37:09.548Z,1.80
2022-08-11T18:42:44.748Z,1.60
2022-08-11T18:48:09.291Z,1.83
2022-08-11T18:53:33.074Z,2.17
2022-08-11T18:58:55.567Z,1.83
2022-08-11T19:04:19.166Z,1.95
2022-08-11T19:09:40.107Z,1.98
2022-08-11T19:15:02.861Z,1.92
2022-08-11T19:20:26.847Z,1.92
2022-08-11T19:25:50.324Z,2.70
2022-08-11T19:31:12.878Z,2.20
2022-08-11T19:36:34.312Z,2.35
2022-08-11T19:41:57.939Z,2.10
2022-08-11T19:47:20.533Z,2.45
2022-08-11T19:52:42.887Z,2.60
2022-08-11T19:58:05.067Z,2.17
2022-08-11T20:03:29.930Z,2.13
2022-08-11T20:08:56.447Z,2.55
2022-08-11T20:14:20.505Z,2.40
2022-08-11T20:19:56.513Z,2.38
2022-08-11T20:25:17.567Z,2.38
2022-08-11T20:30:38.266Z,2.37
2022-08-11T20:35:59.131Z,2.10
2022-08-11T20:41:21.589Z,2.30
2022-08-11T20:46:44.054Z,2.55
2022-08-11T20:52:06.182Z,3.00
2022-08-11T20:57:54.415Z,2.50
2022-08-11T21:03:10.832Z,2.70
2022-08-11T21:08:35.832Z,2.72
2022-08-11T21:13:58.963Z,2.58
2022-08-11T21:20:01.893Z,2.58
2022-08-11T21:25:19.867Z,2.40
2022-08-11T21:30:41.336Z,2.08
2022-08-11T21:36:02.047Z,2.53
2022-08-11T21:41:25.064Z,2.70
2022-08-11T21:46:46.926Z,2.70
2022-08-11T21:52:07.429Z,2.55
2022-08-11T21:57:32.266Z,2.50
2022-08-11T22:02:53.937Z,2.70
2022-08-11T22:08:15.843Z,2.80
2022-08-11T22:13:37.011Z,2.80
2022-08-11T22:18:58.352Z,2.25
2022-08-11T22:24:30.052Z,2.80
2022-08-11T22:29:51.502Z,2.55
2022-08-11T22:40:33.156Z,2.60
2022-08-11T22:45:53.903Z,2.40
2022-08-11T22:51:17.317Z,2.73
2022-08-11T22:56:38.304Z,2.35
2022-08-11T23:01:59.262Z,2.20
2022-08-11T23:07:50.734Z,2.10
2022-08-11T23:13:02.052Z,1.92
2022-08-11T23:18:24.395Z,2.00
2022-08-11T23:23:47.112Z,2.13
2022-08-11T23:29:07.975Z,2.30
2022-08-11T23:35:02.639Z,2.20
2022-08-11T23:40:17.313Z,2.00
2022-08-11T23:45:42.030Z,1.90
2022-08-11T23:51:03.017Z,1.88
2022-08-11T23:56:24.186Z,2.10
